Terminal Aerodrome Forecast
Issued by NWS

Home | Current Version | Previous Version | Text Only | Print | Product List | Glossary On
Versions: 1 2 3 4 5 6 7 8 9 10 11 12 13
000
FTUS45 KGGW 221727 AAA
TAFGDV
TAF AMD
KGDV 221727Z 2217/2318 26009KT P6SM BKN018
     FM222300 25006KT P6SM SCT015
     FM231400 05007KT P6SM BKN015=

USA.gov is the U.S. government's official web portal to all federal, state and local government web resources and services.